createdAt,value
2019-02-24T00:00:40.246Z,50.70
2019-02-24T00:03:10.993Z,51.18
2019-02-24T00:05:41.249Z,50.99
2019-02-24T00:08:11.972Z,51.27
2019-02-24T00:10:42.217Z,51.54
2019-02-24T00:13:12.716Z,51.84
2019-02-24T00:15:43.037Z,51.80
2019-02-24T00:18:13.317Z,52.74
2019-02-24T00:20:43.540Z,52.59
2019-02-24T00:23:13.781Z,52.72
2019-02-24T00:25:44.104Z,52.75
2019-02-24T00:28:14.301Z,52.71
2019-02-24T00:30:44.759Z,52.30
2019-02-24T00:33:14.988Z,52.74
2019-02-24T00:35:45.277Z,52.53
2019-02-24T00:38:15.555Z,52.64
2019-02-24T00:40:45.753Z,52.91
2019-02-24T00:43:16.005Z,52.81
2019-02-24T00:45:46.260Z,52.98
2019-02-24T00:48:16.544Z,52.13
2019-02-24T00:50:46.781Z,51.94
2019-02-24T00:53:17.009Z,51.54
2019-02-24T00:55:47.259Z,51.91
2019-02-24T00:58:17.492Z,51.77
2019-02-24T01:00:47.776Z,51.81
2019-02-24T01:03:18.292Z,51.79
2019-02-24T01:05:48.677Z,52.35
2019-02-24T01:08:19.082Z,52.54
2019-02-24T01:10:49.333Z,52.33
2019-02-24T01:13:20.574Z,51.65
2019-02-24T01:15:50.807Z,51.55
2019-02-24T01:18:21.031Z,52.04
2019-02-24T01:20:51.330Z,52.23
2019-02-24T01:23:21.557Z,52.29
2019-02-24T01:25:51.978Z,52.11
2019-02-24T01:28:25.353Z,52.34
2019-02-24T01:30:54.087Z,52.48
2019-02-24T01:33:25.657Z,51.78
2019-02-24T01:35:55.890Z,52.45
2019-02-24T01:38:26.095Z,52.87
2019-02-24T01:40:56.273Z,53.25
2019-02-24T01:43:26.539Z,52.87
2019-02-24T01:45:56.791Z,52.92
2019-02-24T01:48:27.024Z,52.85
2019-02-24T01:50:57.216Z,53.15
2019-02-24T01:53:27.948Z,53.62
2019-02-24T01:55:59.194Z,54.53
2019-02-24T01:58:35.081Z,54.79
2019-02-24T02:01:02.334Z,54.66
2019-02-24T02:03:32.771Z,54.19
2019-02-24T02:06:03.081Z,55.00
2019-02-24T02:08:33.507Z,55.03
2019-02-24T02:11:03.697Z,55.04
2019-02-24T02:13:33.909Z,55.74
2019-02-24T02:16:04.123Z,56.30
2019-02-24T02:18:34.313Z,57.11
2019-02-24T02:21:04.564Z,56.76
2019-02-24T02:23:34.843Z,56.72
2019-02-24T02:26:05.304Z,56.43
2019-02-24T02:28:43.598Z,56.72
2019-02-24T02:31:07.494Z,56.96
2019-02-24T02:33:37.769Z,56.44
2019-02-24T02:36:08.076Z,56.44
2019-02-24T02:38:38.374Z,55.56
2019-02-24T02:41:08.562Z,54.85
2019-02-24T02:43:38.825Z,54.27
2019-02-24T02:46:09.100Z,54.35
2019-02-24T02:48:39.317Z,54.57
2019-02-24T02:51:09.688Z,54.58
2019-02-24T02:53:39.921Z,54.92
2019-02-24T02:56:10.236Z,55.69
2019-02-24T02:58:40.460Z,55.87
2019-02-24T03:01:10.702Z,55.21
2019-02-24T03:03:41.121Z,58.24
2019-02-24T03:06:16.688Z,58.12
2019-02-24T03:08:51.871Z,58.87
2019-02-24T03:11:22.102Z,59.30
2019-02-24T03:13:52.312Z,59.61
2019-02-24T03:16:27.888Z,59.67
2019-02-24T03:18:58.159Z,58.79
2019-02-24T03:21:28.385Z,57.57
2019-02-24T03:23:58.813Z,56.67
2019-02-24T03:26:29.030Z,57.09
2019-02-24T03:29:04.080Z,56.44
2019-02-24T03:31:31.292Z,56.38
2019-02-24T03:34:02.462Z,57.76
2019-02-24T03:36:32.765Z,57.27
2019-02-24T03:39:03.028Z,57.51
2019-02-24T03:41:34.385Z,57.16
2019-02-24T03:44:04.690Z,58.46
2019-02-24T03:46:34.938Z,59.38
2019-02-24T03:49:05.148Z,58.85
2019-02-24T03:51:35.439Z,57.50
2019-02-24T03:54:06.736Z,56.67
2019-02-24T03:56:37.018Z,56.30
2019-02-24T03:59:14.780Z,56.48
2019-02-24T04:01:39.259Z,56.17
2019-02-24T04:04:09.827Z,55.81
2019-02-24T04:06:40.757Z,55.90
2019-02-24T04:09:11.352Z,56.14
2019-02-24T04:11:43.873Z,55.78
2019-02-24T04:14:14.167Z,56.05
2019-02-24T04:16:44.409Z,56.12
2019-02-24T04:19:14.628Z,56.20
2019-02-24T04:21:44.872Z,55.49
2019-02-24T04:24:15.084Z,56.54
2019-02-24T04:26:45.416Z,57.15
2019-02-24T04:29:24.540Z,56.08
2019-02-24T04:31:47.592Z,57.86
2019-02-24T04:34:17.850Z,56.79
2019-02-24T04:36:49.048Z,56.07
2019-02-24T04:39:19.320Z,55.81
2019-02-24T04:41:49.604Z,55.74
2019-02-24T04:44:19.991Z,56.28
2019-02-24T04:46:50.278Z,56.63
2019-02-24T04:49:20.565Z,56.48
2019-02-24T04:51:50.823Z,56.33
2019-02-24T04:54:21.067Z,57.15
2019-02-24T04:56:51.284Z,57.35
2019-02-24T04:59:21.596Z,58.05
2019-02-24T05:01:51.859Z,57.94
2019-02-24T05:04:22.280Z,57.94
2019-02-24T05:06:52.625Z,58.30
2019-02-24T05:09:22.875Z,57.70
2019-02-24T05:11:53.150Z,57.55
2019-02-24T05:14:23.372Z,57.17
2019-02-24T05:16:53.624Z,56.48
2019-02-24T05:19:23.838Z,56.76
2019-02-24T05:21:53.993Z,57.50
2019-02-24T05:24:24.278Z,58.93
2019-02-24T05:26:54.516Z,58.86
2019-02-24T05:29:24.727Z,58.55
2019-02-24T05:31:55.161Z,60.14
2019-02-24T05:34:25.411Z,60.80
2019-02-24T05:36:55.640Z,59.31
2019-02-24T05:39:25.871Z,58.78
2019-02-24T05:41:56.066Z,58.19
2019-02-24T05:44:26.267Z,58.03
2019-02-24T05:46:56.660Z,58.25
2019-02-24T05:49:26.861Z,58.22
2019-02-24T05:51:57.107Z,58.77
2019-02-24T05:54:28.330Z,58.82
2019-02-24T05:56:58.624Z,57.95
2019-02-24T05:59:28.912Z,56.46
2019-02-24T06:01:59.337Z,56.96
2019-02-24T06:04:29.748Z,57.75
2019-02-24T06:06:59.978Z,58.83
2019-02-24T06:09:30.273Z,60.80
2019-02-24T06:12:00.472Z,61.36
2019-02-24T06:14:30.756Z,61.69
2019-02-24T06:17:00.975Z,61.48
2019-02-24T06:19:31.413Z,61.40
2019-02-24T06:22:01.682Z,60.02
2019-02-24T06:24:31.947Z,57.86
2019-02-24T06:27:02.180Z,57.12
2019-02-24T06:29:32.435Z,56.83
2019-02-24T06:32:02.680Z,55.40
2019-02-24T06:34:32.884Z,54.54
2019-02-24T06:37:03.118Z,55.03
2019-02-24T06:39:33.332Z,53.29
2019-02-24T06:42:03.633Z,53.39
2019-02-24T06:44:33.837Z,53.50
2019-02-24T06:47:04.017Z,53.11
2019-02-24T06:49:34.248Z,52.87
2019-02-24T06:52:04.516Z,53.28
2019-02-24T06:54:34.768Z,53.20
2019-02-24T06:57:05.018Z,53.45
2019-02-24T06:59:35.228Z,54.25
2019-02-24T07:02:05.439Z,54.31
2019-02-24T07:04:36.036Z,55.14
2019-02-24T07:07:07.430Z,54.97
2019-02-24T07:09:37.686Z,55.30
2019-02-24T07:12:08.771Z,55.65
2019-02-24T07:14:39.055Z,55.41
2019-02-24T07:17:09.266Z,55.21
2019-02-24T07:19:39.519Z,55.74
2019-02-24T07:22:09.748Z,55.47
2019-02-24T07:24:40.025Z,54.87
2019-02-24T07:27:10.251Z,54.33
2019-02-24T07:29:40.483Z,55.54
2019-02-24T07:32:10.702Z,55.42
2019-02-24T07:34:40.953Z,55.23
2019-02-24T07:37:13.179Z,54.61
2019-02-24T07:39:43.161Z,54.94
2019-02-24T07:42:13.407Z,55.27
2019-02-24T07:44:43.641Z,54.40
2019-02-24T07:47:13.879Z,54.59
2019-02-24T07:49:44.207Z,54.02
2019-02-24T07:52:14.430Z,52.87
2019-02-24T07:54:44.666Z,52.93
2019-02-24T07:57:14.903Z,53.35
2019-02-24T07:59:45.125Z,52.74
2019-02-24T08:02:15.381Z,53.25
2019-02-24T08:04:46.004Z,53.34
2019-02-24T08:07:16.206Z,53.62
2019-02-24T08:09:46.942Z,54.13
2019-02-24T08:12:17.251Z,55.04
2019-02-24T08:14:47.461Z,54.22
2019-02-24T08:17:18.715Z,54.33
2019-02-24T08:19:48.899Z,54.52
2019-02-24T08:22:20.136Z,53.43
2019-02-24T08:24:52.184Z,52.67
2019-02-24T08:27:22.532Z,53.22
2019-02-24T08:29:52.762Z,52.20
2019-02-24T08:32:23.028Z,51.59
2019-02-24T08:34:53.196Z,51.27
2019-02-24T08:37:23.536Z,52.12
2019-02-24T08:39:54.972Z,52.94
2019-02-24T08:42:26.317Z,52.72
2019-02-24T08:44:56.529Z,52.20
2019-02-24T08:47:26.758Z,52.70
2019-02-24T08:49:57.093Z,53.10
2019-02-24T08:52:27.260Z,53.91
2019-02-24T08:54:57.618Z,52.25
2019-02-24T08:57:27.826Z,51.12
2019-02-24T08:59:58.077Z,50.65
2019-02-24T09:02:28.285Z,49.63
2019-02-24T09:04:58.934Z,48.39
2019-02-24T09:07:29.117Z,48.78
2019-02-24T09:09:59.293Z,48.77
2019-02-24T09:12:29.514Z,49.50
2019-02-24T09:14:59.763Z,49.04
2019-02-24T09:17:30.048Z,50.08
2019-02-24T09:20:00.360Z,49.40
2019-02-24T09:22:32.688Z,48.88
2019-02-24T09:25:03.481Z,48.50
2019-02-24T09:27:33.821Z,49.19
2019-02-24T09:30:04.531Z,47.65
2019-02-24T09:32:34.848Z,47.01
2019-02-24T09:35:05.223Z,46.56
2019-02-24T09:37:35.463Z,45.49
2019-02-24T09:40:08.792Z,46.19
2019-02-24T09:42:39.079Z,47.83
2019-02-24T09:45:09.549Z,47.92
2019-02-24T09:47:46.394Z,47.02
2019-02-24T09:50:12.065Z,46.48
2019-02-24T09:52:42.349Z,45.09
2019-02-24T09:55:12.688Z,44.56
2019-02-24T09:57:42.947Z,44.73
2019-02-24T10:00:13.249Z,44.05
2019-02-24T10:02:48.415Z,44.87
2019-02-24T10:05:19.018Z,44.27
2019-02-24T10:07:49.305Z,45.00
2019-02-24T10:10:20.484Z,44.56
2019-02-24T10:12:50.709Z,40.83
2019-02-24T10:15:21.073Z,40.32
2019-02-24T10:17:51.443Z,42.75
2019-02-24T10:20:21.684Z,42.64
2019-02-24T10:22:53.731Z,42.62
2019-02-24T10:25:24.055Z,42.07
2019-02-24T10:27:54.362Z,41.41
2019-02-24T10:30:24.541Z,39.07
2019-02-24T10:32:54.913Z,37.55
2019-02-24T10:35:25.094Z,38.42
2019-02-24T10:37:55.463Z,37.42
2019-02-24T10:40:25.723Z,38.29
2019-02-24T10:42:55.998Z,38.13
2019-02-24T10:45:26.333Z,36.10
2019-02-24T10:47:56.593Z,37.61
2019-02-24T10:50:27.106Z,37.10
2019-02-24T10:52:57.307Z,35.26
2019-02-24T10:55:27.532Z,31.11
2019-02-24T10:57:57.763Z,30.10
2019-02-24T11:00:28.968Z,29.02
2019-02-24T11:02:59.219Z,27.41
2019-02-24T11:05:30.023Z,27.10
2019-02-24T11:08:00.261Z,28.04
2019-02-24T11:10:30.548Z,25.94
2019-02-24T11:13:00.741Z,27.64
2019-02-24T11:15:30.945Z,25.87
2019-02-24T11:18:01.600Z,27.77
2019-02-24T11:20:32.028Z,27.73
2019-02-24T11:23:02.251Z,30.55
2019-02-24T11:25:32.459Z,31.03
2019-02-24T11:28:06.774Z,32.26
2019-02-24T11:30:38.571Z,31.09
2019-02-24T11:33:17.762Z,30.66
2019-02-24T11:35:51.560Z,29.69
2019-02-24T11:38:31.911Z,28.93
2019-02-24T11:41:02.458Z,29.95
2019-02-24T11:43:38.171Z,28.29
2019-02-24T11:46:08.810Z,28.78
2019-02-24T11:48:40.898Z,27.76
2019-02-24T11:51:11.109Z,27.92
2019-02-24T11:53:41.443Z,27.65
2019-02-24T11:56:12.799Z,26.84
2019-02-24T11:58:43.010Z,27.59
2019-02-24T12:01:13.414Z,27.03
2019-02-24T12:03:44.310Z,26.47
2019-02-24T12:06:15.111Z,26.38
2019-02-24T12:08:45.304Z,26.27
2019-02-24T12:11:15.513Z,26.39
2019-02-24T12:13:45.814Z,25.10
2019-02-24T12:16:16.297Z,24.91
2019-02-24T12:19:14.865Z,24.98
2019-02-24T12:21:49.262Z,24.79
2019-02-24T12:24:31.572Z,26.03
2019-02-24T12:27:01.784Z,27.41
2019-02-24T12:29:32.106Z,27.84
2019-02-24T12:32:09.484Z,26.41
2019-02-24T12:34:39.707Z,25.63
2019-02-24T12:37:21.437Z,24.86
2019-02-24T12:39:52.993Z,26.26
2019-02-24T12:42:26.179Z,24.92
2019-02-24T12:44:56.577Z,25.56
2019-02-24T12:47:26.866Z,23.09
2019-02-24T12:50:03.235Z,22.69
2019-02-24T12:52:29.166Z,24.04
2019-02-24T12:54:59.510Z,22.62
2019-02-24T12:57:38.618Z,20.94
2019-02-24T13:00:14.382Z,22.00
2019-02-24T13:02:44.639Z,21.81
2019-02-24T13:05:14.856Z,24.96
2019-02-24T13:07:45.070Z,26.03
2019-02-24T13:10:16.002Z,23.81
2019-02-24T13:12:46.288Z,23.99
2019-02-24T13:15:16.833Z,25.72
2019-02-24T13:17:47.858Z,22.83
2019-02-24T13:20:18.072Z,21.73
2019-02-24T13:22:48.272Z,23.00
2019-02-24T13:25:19.492Z,19.01
2019-02-24T13:27:49.836Z,20.40
2019-02-24T13:30:20.157Z,20.23
2019-02-24T13:32:50.462Z,20.39
2019-02-24T13:35:20.657Z,21.82
2019-02-24T13:37:50.873Z,22.30
2019-02-24T13:40:21.214Z,22.85
2019-02-24T13:42:51.465Z,21.19
2019-02-24T13:45:21.685Z,22.88
2019-02-24T13:47:51.881Z,22.71
2019-02-24T13:50:22.188Z,22.98
2019-02-24T13:52:52.530Z,23.59
2019-02-24T13:55:22.806Z,23.98
2019-02-24T13:57:57.762Z,23.67
2019-02-24T14:00:28.164Z,22.58
2019-02-24T14:02:58.415Z,22.01
2019-02-24T14:05:50.701Z,22.25
2019-02-24T14:08:21.281Z,23.97
2019-02-24T14:10:52.248Z,23.06
2019-02-24T14:13:24.208Z,22.65
2019-02-24T14:15:54.488Z,22.89
2019-02-24T14:18:30.209Z,24.33
2019-02-24T14:21:08.595Z,25.37
2019-02-24T14:23:39.070Z,24.86
2019-02-24T14:26:11.009Z,25.88
2019-02-24T14:28:41.308Z,27.37
2019-02-24T14:31:13.850Z,28.73
2019-02-24T14:33:44.182Z,28.70
2019-02-24T14:36:14.535Z,29.36
2019-02-24T14:38:47.940Z,29.84
2019-02-24T14:41:18.137Z,29.11
2019-02-24T14:43:50.963Z,27.61
2019-02-24T14:46:21.859Z,27.70
2019-02-24T14:48:52.106Z,26.62
2019-02-24T14:51:22.411Z,26.06
2019-02-24T14:53:52.644Z,26.75
2019-02-24T14:56:22.882Z,26.93
2019-02-24T14:59:32.707Z,26.90
2019-02-24T15:02:07.373Z,26.53
2019-02-24T15:04:46.486Z,25.09
2019-02-24T15:07:26.527Z,26.33
2019-02-24T15:10:11.641Z,25.47
2019-02-24T15:12:46.038Z,25.46
2019-02-24T15:15:21.718Z,23.99
2019-02-24T15:17:52.925Z,22.63
2019-02-24T15:20:24.911Z,24.17
2019-02-24T15:22:57.160Z,24.61
2019-02-24T15:25:27.363Z,25.17
2019-02-24T15:27:57.638Z,25.23
2019-02-24T15:30:30.136Z,24.11
2019-02-24T15:33:00.439Z,24.93
2019-02-24T15:35:30.620Z,24.36
2019-02-24T15:38:00.865Z,23.56
2019-02-24T15:40:31.155Z,24.79
2019-02-24T15:43:01.462Z,24.80
2019-02-24T15:45:31.877Z,24.33
2019-02-24T15:48:02.110Z,26.60
2019-02-24T15:50:32.299Z,25.00
2019-02-24T15:53:02.533Z,26.05
2019-02-24T15:55:37.091Z,25.58
2019-02-24T15:58:07.318Z,24.17
2019-02-24T16:00:37.674Z,24.04
2019-02-24T16:03:07.977Z,24.03
2019-02-24T16:05:38.253Z,23.17
2019-02-24T16:08:08.493Z,23.85
2019-02-24T16:10:40.181Z,25.19
2019-02-24T16:13:16.643Z,24.42
2019-02-24T16:15:42.376Z,24.84
2019-02-24T16:18:12.707Z,25.48
2019-02-24T16:20:44.602Z,24.94
2019-02-24T16:23:14.833Z,25.76
2019-02-24T16:25:45.219Z,28.72
2019-02-24T16:28:15.573Z,29.56
2019-02-24T16:30:45.832Z,29.91
2019-02-24T16:33:16.038Z,30.06
2019-02-24T16:35:46.307Z,33.39
2019-02-24T16:38:16.734Z,30.54
2019-02-24T16:40:47.049Z,30.60
2019-02-24T16:43:20.794Z,33.00
2019-02-24T16:45:51.269Z,34.09
2019-02-24T16:48:21.516Z,32.42
2019-02-24T16:50:51.765Z,32.25
2019-02-24T16:53:22.106Z,34.11
2019-02-24T16:55:52.362Z,34.52
2019-02-24T16:58:22.684Z,35.04
2019-02-24T17:00:54.134Z,37.23
2019-02-24T17:03:24.391Z,43.07
2019-02-24T17:05:54.690Z,43.17
2019-02-24T17:08:25.127Z,42.10
2019-02-24T17:10:55.572Z,41.23
2019-02-24T17:13:25.969Z,41.44
2019-02-24T17:15:56.301Z,40.50
2019-02-24T17:18:26.561Z,40.68
2019-02-24T17:20:56.833Z,39.98
2019-02-24T17:23:27.258Z,42.29
2019-02-24T17:25:58.283Z,45.98
2019-02-24T17:28:28.671Z,49.35
2019-02-24T17:30:59.247Z,47.46
2019-02-24T17:33:31.165Z,49.11
2019-02-24T17:36:03.879Z,50.32
2019-02-24T17:38:34.206Z,45.33
2019-02-24T17:41:04.549Z,50.43
2019-02-24T17:43:36.108Z,52.20
2019-02-24T17:46:06.706Z,53.16
2019-02-24T17:48:37.069Z,52.14
2019-02-24T17:51:07.776Z,48.81
2019-02-24T17:53:39.549Z,50.55
2019-02-24T17:56:25.153Z,50.70
2019-02-24T17:58:55.659Z,52.46
2019-02-24T18:01:26.266Z,47.96
2019-02-24T18:03:56.694Z,52.00
2019-02-24T18:06:27.031Z,49.11
2019-02-24T18:09:02.320Z,50.03
2019-02-24T18:11:34.529Z,49.61
2019-02-24T18:14:28.075Z,50.59
2019-02-24T18:16:58.218Z,50.70
2019-02-24T18:19:30.840Z,52.35
2019-02-24T18:22:01.183Z,52.93
2019-02-24T18:24:31.597Z,51.96
2019-02-24T18:27:01.972Z,53.87
2019-02-24T18:29:32.281Z,55.46
2019-02-24T18:32:04.157Z,57.36
2019-02-24T18:34:34.570Z,57.83
2019-02-24T18:37:05.879Z,57.44
2019-02-24T18:39:36.207Z,55.10
2019-02-24T18:42:08.090Z,54.69
2019-02-24T18:44:38.428Z,53.04
2019-02-24T18:47:08.818Z,52.55
2019-02-24T18:49:39.269Z,52.87
2019-02-24T18:52:11.386Z,52.87
2019-02-24T18:54:41.605Z,51.83
2019-02-24T18:57:15.815Z,51.06
2019-02-24T18:59:46.119Z,51.87
2019-02-24T19:02:16.407Z,53.58
2019-02-24T19:04:51.074Z,54.38
2019-02-24T19:07:24.655Z,52.87
2019-02-24T19:09:56.947Z,53.82
2019-02-24T19:12:29.815Z,53.85
2019-02-24T19:15:00.338Z,56.48
2019-02-24T19:17:30.634Z,58.75
2019-02-24T19:20:05.655Z,59.75
2019-02-24T19:22:38.123Z,59.12
2019-02-24T19:25:08.922Z,58.97
2019-02-24T19:27:39.261Z,58.52
2019-02-24T19:30:11.229Z,59.58
2019-02-24T19:32:41.595Z,60.05
2019-02-24T19:35:12.214Z,59.53
2019-02-24T19:37:42.515Z,56.83
2019-02-24T19:40:14.440Z,57.74
2019-02-24T19:42:44.839Z,60.98
2019-02-24T19:45:20.401Z,62.29
2019-02-24T19:47:50.625Z,62.91
2019-02-24T19:50:22.701Z,63.24
2019-02-24T19:53:17.221Z,64.15
2019-02-24T19:55:49.067Z,64.44
2019-02-24T19:58:20.961Z,64.56
2019-02-24T20:00:55.401Z,63.00
2019-02-24T20:03:26.701Z,63.64
2019-02-24T20:05:57.570Z,63.84
2019-02-24T20:08:27.892Z,64.09
2019-02-24T20:10:58.340Z,63.48
2019-02-24T20:13:28.762Z,63.98
2019-02-24T20:16:00.362Z,64.80
2019-02-24T20:18:31.598Z,63.41
2019-02-24T20:21:03.441Z,63.42
2019-02-24T20:23:34.267Z,64.66
2019-02-24T20:26:04.743Z,64.90
2019-02-24T20:28:34.967Z,64.43
2019-02-24T20:31:05.252Z,62.61
2019-02-24T20:33:36.545Z,60.57
2019-02-24T20:36:06.853Z,62.20
2019-02-24T20:38:37.105Z,63.87
2019-02-24T20:41:07.492Z,62.07
2019-02-24T20:43:37.992Z,61.68
2019-02-24T20:46:08.384Z,61.28
2019-02-24T20:48:38.595Z,62.58
2019-02-24T20:51:10.486Z,60.94
2019-02-24T20:53:42.107Z,60.92
2019-02-24T20:56:12.499Z,61.15
2019-02-24T20:58:43.948Z,62.08
2019-02-24T21:01:14.359Z,62.35
2019-02-24T21:03:44.791Z,63.91
2019-02-24T21:06:15.057Z,64.21
2019-02-24T21:08:45.332Z,64.42
2019-02-24T21:11:15.595Z,64.59
2019-02-24T21:13:46.214Z,64.74
2019-02-24T21:16:16.468Z,64.56
2019-02-24T21:18:46.749Z,64.26
2019-02-24T21:21:17.175Z,64.81
2019-02-24T21:23:47.543Z,65.07
2019-02-24T21:26:17.903Z,65.64
2019-02-24T21:28:49.021Z,65.91
2019-02-24T21:31:19.341Z,64.02
2019-02-24T21:33:49.606Z,63.36
2019-02-24T21:36:22.195Z,61.94
2019-02-24T21:38:52.535Z,61.46
2019-02-24T21:41:22.793Z,62.36
2019-02-24T21:43:53.029Z,62.70
2019-02-24T21:46:23.280Z,62.50
2019-02-24T21:48:53.573Z,62.51
2019-02-24T21:51:24.283Z,63.59
2019-02-24T21:53:54.560Z,63.45
2019-02-24T21:56:24.783Z,64.34
2019-02-24T21:58:54.969Z,64.69
2019-02-24T22:01:25.217Z,66.12
2019-02-24T22:03:55.470Z,67.17
2019-02-24T22:06:26.707Z,67.60
2019-02-24T22:08:57.080Z,67.64
2019-02-24T22:11:27.285Z,67.79
2019-02-24T22:13:57.709Z,68.39
2019-02-24T22:16:28.036Z,69.28
2019-02-24T22:18:58.301Z,68.78
2019-02-24T22:21:28.555Z,69.02
2019-02-24T22:23:58.920Z,69.18
2019-02-24T22:26:29.158Z,68.79
2019-02-24T22:28:59.394Z,68.45
2019-02-24T22:31:29.596Z,68.66
2019-02-24T22:33:59.902Z,69.19
2019-02-24T22:36:30.112Z,68.69
2019-02-24T22:39:00.395Z,68.94
2019-02-24T22:41:31.317Z,69.69
2019-02-24T22:44:01.643Z,69.47
2019-02-24T22:46:31.928Z,69.20
2019-02-24T22:49:03.207Z,69.08
2019-02-24T22:51:33.454Z,68.66
2019-02-24T22:54:03.841Z,67.69
2019-02-24T22:56:34.102Z,67.41
2019-02-24T22:59:04.342Z,67.72
2019-02-24T23:01:38.039Z,68.21
2019-02-24T23:04:13.226Z,68.21
2019-02-24T23:06:44.243Z,68.20
2019-02-24T23:09:21.428Z,67.40
2019-02-24T23:11:51.897Z,68.32
2019-02-24T23:14:23.694Z,68.06
2019-02-24T23:16:54.004Z,67.64
2019-02-24T23:19:24.449Z,67.51
2019-02-24T23:21:54.669Z,68.20
2019-02-24T23:24:24.894Z,68.70
2019-02-24T23:26:55.168Z,68.95
2019-02-24T23:29:25.381Z,69.26
2019-02-24T23:31:55.878Z,68.95
2019-02-24T23:34:26.121Z,69.12
2019-02-24T23:36:56.324Z,69.88
2019-02-24T23:39:26.588Z,69.86
2019-02-24T23:41:56.813Z,69.87
2019-02-24T23:44:27.049Z,69.92
2019-02-24T23:46:57.375Z,69.93
2019-02-24T23:49:27.655Z,70.79
2019-02-24T23:51:58.057Z,71.79
2019-02-24T23:54:28.315Z,72.63
2019-02-24T23:56:58.545Z,72.99
2019-02-24T23:59:28.735Z,73.01
